Unicom:                    122.8

AWOS:                  118.275

Elevation           1458’ MSL

TPA:                   2500’ MSL

06/24:         5003’ L   75’ W

PAPI:       06/Left     24/Left

(Operate lights on unicom freq.)

Traffic Pattern: Left

Beacon: Sunset to Sunrise

Windsock: yes, lighted

Segmented Circle: No

 

Cleveland Center: 126.72/291.65

FSS: Altoona

[Source: ADDS]
METAR
KFKL 292056Z AUTO VRB03KT 10SM OVC021 M01/M06 A3011 RMK AO2 SLP215 T10111056 55009 FZRANO =
KFKL 291921Z 2919/3018 32003KT P6SM BKN018 FM300000 04003KT P6SM SCT020 FM301400 09003KT P6SM OVC050
TAF
KFKL 291921Z 2919/3018 32003KT P6SM BKN018 FM300000 04003KT P6SM SCT020 FM301400 09003KT P6SM OVC050 =
[Source: ADDS]
METAR
KDUJ 292053Z AUTO 03006KT 10SM CLR 01/M08 A3005 RMK AO2 SLP196 T00061078 56012 =
KDUJ 291732Z 2918/3018 32004KT P6SM BKN025 FM291900 35006KT P6SM OVC040 FM300000 03003KT P6SM BKN250 FM301500 08005KT P6SM OVC100
TAF
KDUJ 291732Z 2918/3018 32004KT P6SM BKN025 FM291900 35006KT P6SM OVC040 FM300000 03003KT P6SM BKN250 FM301500 08005KT P6SM OVC100 =

Welcome to Clarion County Airport.

We look forward to serving all of your aviation needs.


Clarion County Airport is a General Aviation, Business Class airport serving the Clarion County Area in Central Western Pennsylvania.  Our 5,003' asphalt runway and gps approaches are capable of serving most of the general aviation fleet in most weather conditions.


If you are planning a fuel stop while flying in Western Pennsylvania, consider paying us a visit. Our prices are some of the lowest in the state Check prices here ----> www.airnav.com/fuel and enter identifier KAXQ or see current prices below. We can have you fueled and taxiing out to the runway in about 10 minutes. Our current hours of operation are Monday- Saturday 8:00AM-4:00PM. The FBO building will be closed on Sundays until March 1st, 2019. Holiday closures are Christmas Day and Thanksgiving. If you require use of the facilities during the holidays or after hours please call ahead and someone will be there to assist you.


- Airport Manager -  


                             CURRENT FUEL PRICES AS OF 1/4/19      JET-A w/additive    $3.79               100LL     $4.65 CC   Cash $4.52


                              Self Service fueling available 24/7, credit card reader enabled. Center point fueling available upon request.

                                                           For after hours fueling assistance please contact 814-282-6001.